Time;durP1;ratioP1;P1;durP2;ratioP2;P2;SDS_P1;SDS_P2;PMS_P1;PMS_P2;Temp;Humidity;BMP_temperature;BMP_pressure;BME280_temperature;BME280_humidity;BME280_pressure;Samples;Min_cycle;Max_cycle;Signal;HPM_P1;HPM_P2
2022/03/27 00:06:37;;;;;;;25.53;12.33;;;;;;;8.74;67.20;99249.59;4161645;28;20715;-84
2022/03/27 00:08:40;;;;;;;27.70;14.00;;;;;;;8.71;68.06;99263.56;4152100;28;20617;-84
2022/03/27 00:13:04;;;;;;;21.70;12.50;;;;;;;8.66;68.55;99256.84;4124047;28;20648;-83
2022/03/27 00:15:09;;;;;;;21.20;11.17;;;;;;;8.67;67.31;99255.94;4146321;28;20735;-84
2022/03/27 00:17:13;;;;;;;23.50;12.40;;;;;;;8.66;67.47;99254.25;4163357;28;20677;-84
2022/03/27 00:19:16;;;;;;;23.53;13.37;;;;;;;8.59;67.84;99252.84;4164257;28;20678;-83
2022/03/27 00:21:20;;;;;;;33.03;13.83;;;;;;;8.58;67.69;99251.13;4146559;28;20701;-83
2022/03/27 00:23:25;;;;;;;25.10;13.17;;;;;;;8.56;69.05;99248.59;4148798;28;20639;-84
2022/03/27 00:25:28;;;;;;;22.63;12.37;;;;;;;8.56;67.84;99259.00;4131723;28;20686;-84
2022/03/27 00:27:31;;;;;;;23.60;12.40;;;;;;;8.58;67.69;99253.72;4146332;28;20634;-83
2022/03/27 00:29:35;;;;;;;25.20;13.90;;;;;;;8.62;68.68;99250.94;4163027;28;20669;-83
2022/03/27 00:31:38;;;;;;;21.47;12.40;;;;;;;8.65;66.93;99256.00;4130120;28;20624;-84
2022/03/27 00:33:43;;;;;;;20.73;13.03;;;;;;;8.66;67.24;99254.25;4131036;28;20631;-84
2022/03/27 00:35:46;;;;;;;18.17;11.73;;;;;;;8.64;68.33;99251.72;4131985;28;20627;-83
2022/03/27 00:37:52;;;;;;;17.80;11.73;;;;;;;8.67;67.87;99254.19;4145304;28;20671;-83
2022/03/27 00:39:56;;;;;;;23.87;12.60;;;;;;;8.64;67.74;99249.13;4161700;28;20638;-84
2022/03/27 00:42:00;;;;;;;21.60;13.07;;;;;;;8.59;68.44;99250.25;4145909;28;21064;-83
2022/03/27 00:44:03;;;;;;;23.23;12.50;;;;;;;8.56;69.00;99250.38;4143497;28;20636;-83
2022/03/27 00:46:07;;;;;;;22.53;13.20;;;;;;;8.49;68.48;99254.13;4164967;28;21183;-83
2022/03/27 00:48:11;;;;;;;21.97;13.23;;;;;;;8.45;68.29;99250.81;4133263;28;20635;-84
2022/03/27 00:50:14;;;;;;;26.63;12.80;;;;;;;8.38;69.01;99256.31;4148946;28;20631;-83
2022/03/27 00:52:18;;;;;;;26.33;12.50;;;;;;;8.26;69.26;99251.63;4139721;28;20652;-84
2022/03/27 00:54:21;;;;;;;26.23;12.63;;;;;;;8.24;69.71;99252.56;4162209;28;21201;-83
2022/03/27 00:56:26;;;;;;;20.27;12.47;;;;;;;8.19;69.44;99252.75;4129394;28;20733;-83
2022/03/27 00:58:29;;;;;;;20.70;13.47;;;;;;;8.13;68.92;99247.84;4132981;28;20653;-83
2022/03/27 01:01:04;;;;;;;25.63;12.23;;;;;;;8.13;68.71;99247.84;4145518;28;20619;-83
2022/03/27 01:03:11;;;;;;;24.53;11.97;;;;;;;8.12;69.28;99250.50;4123287;28;20693;-83
2022/03/27 01:05:16;;;;;;;23.63;13.77;;;;;;;8.06;68.89;99251.53;4162271;28;20693;-84
2022/03/27 01:07:19;;;;;;;23.30;12.60;;;;;;;8.05;69.75;99256.81;4179997;28;20645;-83
2022/03/27 01:09:37;;;;;;;20.87;12.47;;;;;;;8.00;70.43;99249.19;4151786;28;20633;-84
2022/03/27 01:11:41;;;;;;;20.00;12.30;;;;;;;7.96;70.05;99250.22;4160946;28;20722;-83
2022/03/27 01:13:47;;;;;;;19.77;11.90;;;;;;;7.97;70.24;99249.31;4157495;28;21238;-83
2022/03/27 01:15:54;;;;;;;23.60;12.47;;;;;;;7.91;70.46;99240.94;4161764;28;20633;-84
2022/03/27 01:17:58;;;;;;;28.80;15.30;;;;;;;7.92;71.05;99246.97;4161216;28;21009;-83
2022/03/27 01:20:04;;;;;;;22.87;14.90;;;;;;;7.90;69.91;99238.38;4161879;28;20633;-82
2022/03/27 01:22:07;;;;;;;21.43;12.43;;;;;;;7.91;70.16;99238.34;4163001;28;20666;-83
2022/03/27 01:24:11;;;;;;;23.27;13.57;;;;;;;7.92;70.29;99231.38;4143088;28;20631;-83
2022/03/27 01:26:14;;;;;;;27.47;13.60;;;;;;;7.88;69.78;99238.44;4144837;28;20669;-84
2022/03/27 01:28:18;;;;;;;25.00;13.80;;;;;;;7.88;71.17;99233.25;4161549;28;20722;-84
2022/03/27 01:30:21;;;;;;;25.27;13.13;;;;;;;7.88;70.34;99229.78;4158905;28;20680;-83
2022/03/27 01:32:24;;;;;;;25.00;12.40;;;;;;;7.88;71.14;99233.25;4159866;28;20618;-84
2022/03/27 01:34:27;;;;;;;23.57;12.77;;;;;;;7.89;70.76;99232.31;4145625;28;20624;-84
2022/03/27 01:36:34;;;;;;;22.57;13.53;;;;;;;7.88;70.50;99224.59;4152921;28;20692;-84
2022/03/27 01:38:38;;;;;;;26.23;12.70;;;;;;;7.86;71.11;99234.22;4145103;28;21500;-84
2022/03/27 01:40:41;;;;;;;21.23;12.67;;;;;;;7.84;71.58;99223.88;4160061;28;20644;-83
2022/03/27 01:42:45;;;;;;;25.30;13.00;;;;;;;7.84;70.63;99225.66;4155782;28;20651;-83
2022/03/27 01:44:48;;;;;;;22.63;13.83;;;;;;;7.82;71.22;99224.84;4151440;28;21094;-84
2022/03/27 01:46:52;;;;;;;23.80;13.43;;;;;;;7.80;70.93;99219.72;4161016;28;20637;-83
2022/03/27 01:48:55;;;;;;;23.53;12.47;;;;;;;7.79;71.38;99218.03;4161736;28;20715;-83
2022/03/27 01:50:59;;;;;;;20.80;12.60;;;;;;;7.74;70.86;99221.72;4161716;28;20684;-83
2022/03/27 01:53:04;;;;;;;19.57;13.13;;;;;;;7.73;71.44;99217.44;4143145;28;20619;-84
2022/03/27 01:55:08;;;;;;;25.47;13.73;;;;;;;7.72;71.51;99215.75;4145148;28;20637;-83
2022/03/27 01:57:13;;;;;;;23.40;13.33;;;;;;;7.70;71.61;99217.56;4161271;28;20646;-83
2022/03/27 01:59:19;;;;;;;22.93;13.20;;;;;;;7.64;71.28;99226.41;4159391;28;21264;-84
2022/03/27 02:01:22;;;;;;;22.73;13.43;;;;;;;7.63;71.10;99216.09;4160498;28;21023;-84
2022/03/27 02:03:28;;;;;;;24.07;12.83;;;;;;;7.60;71.53;99227.44;4180131;28;21583;-84
2022/03/27 02:05:31;;;;;;;22.43;13.13;;;;;;;7.56;71.63;99223.28;4157537;28;21213;-83
2022/03/27 02:07:38;;;;;;;21.37;13.80;;;;;;;7.54;71.67;99229.41;4145512;28;20641;-84
2022/03/27 02:09:43;;;;;;;21.77;12.53;;;;;;;7.50;71.56;99231.28;4166070;28;20637;-83
2022/03/27 02:11:46;;;;;;;25.48;13.13;;;;;;;7.45;72.28;99229.78;4148068;28;20691;-84
2022/03/27 02:13:50;;;;;;;20.50;13.03;;;;;;;7.40;71.89;99231.69;4163276;28;20696;-84
2022/03/27 02:15:55;;;;;;;20.50;12.90;;;;;;;7.40;71.65;99226.50;4141023;28;20627;-84
2022/03/27 02:18:01;;;;;;;18.77;11.30;;;;;;;7.38;71.92;99222.28;4143928;28;20634;-84
2022/03/27 02:20:06;;;;;;;28.40;13.60;;;;;;;7.35;72.02;99228.44;4164519;28;20719;-83
2022/03/27 02:22:09;;;;;;;22.67;12.57;;;;;;;7.33;73.02;99224.19;4164581;28;20634;-84
2022/03/27 02:24:13;;;;;;;28.43;12.73;;;;;;;7.32;72.87;99233.75;4158260;28;20923;-84
2022/03/27 02:26:17;;;;;;;19.03;12.67;;;;;;;7.30;72.55;99230.34;4161679;28;20614;-84
2022/03/27 02:28:22;;;;;;;23.00;12.50;;;;;;;7.28;72.56;99229.56;4149753;28;20641;-83
2022/03/27 02:30:26;;;;;;;21.90;13.20;;;;;;;7.23;72.75;99234.09;4145553;28;21242;-84
2022/03/27 02:32:29;;;;;;;22.13;13.23;;;;;;;7.22;73.21;99229.78;4160018;28;20683;-83
2022/03/27 02:34:32;;;;;;;24.67;13.60;;;;;;;7.22;73.19;99236.72;4147716;28;21073;-84
2022/03/27 02:36:36;;;;;;;24.37;12.60;;;;;;;7.20;73.02;99234.19;4146373;28;20199;-84
2022/03/27 02:38:42;;;;;;;21.77;13.27;;;;;;;7.20;73.76;99229.00;4164383;28;20630;-84
2022/03/27 02:40:46;;;;;;;24.53;13.27;;;;;;;7.18;73.08;99230.78;4161487;28;20618;-83
2022/03/27 02:42:51;;;;;;;24.50;12.80;;;;;;;7.14;72.92;99229.22;4162665;28;21321;-84
2022/03/27 02:44:54;;;;;;;21.67;12.90;;;;;;;7.11;73.22;99226.75;4160928;28;20765;-83
2022/03/27 02:46:59;;;;;;;22.70;13.27;;;;;;;7.09;73.46;99228.53;4143590;28;20620;-83
2022/03/27 02:49:02;;;;;;;19.63;12.40;;;;;;;7.08;73.99;99228.59;4164745;28;21205;-83
2022/03/27 02:51:06;;;;;;;22.87;12.83;;;;;;;7.04;73.27;99222.66;4154754;28;20636;-83
2022/03/27 02:53:09;;;;;;;25.37;14.43;;;;;;;7.03;73.31;99229.66;4158876;28;20620;-83
2022/03/27 02:55:12;;;;;;;20.60;12.40;;;;;;;7.03;73.60;99220.97;4163152;28;20984;-84
2022/03/27 02:57:16;;;;;;;30.60;14.63;;;;;;;7.03;73.50;99224.50;4147010;28;20211;-83
2022/03/27 02:59:22;;;;;;;23.87;13.00;;;;;;;6.99;73.73;99221.16;4153558;28;20629;-84
2022/03/27 03:01:25;;;;;;;31.17;14.57;;;;;;;6.96;73.82;99220.41;4155948;28;21101;-83
2022/03/27 03:03:28;;;;;;;20.67;12.90;;;;;;;6.96;73.75;99228.19;4164136;28;20672;-83
2022/03/27 03:05:32;;;;;;;28.33;13.27;;;;;;;6.95;73.90;99226.53;4145793;28;20655;-84
2022/03/27 03:07:36;;;;;;;22.50;12.50;;;;;;;6.91;73.84;99223.16;4164456;28;20694;-83
2022/03/27 03:09:39;;;;;;;23.33;13.20;;;;;;;6.91;74.26;99219.75;4164177;28;20700;-84
2022/03/27 03:11:44;;;;;;;22.93;12.93;;;;;;;6.88;73.70;99222.44;4160858;28;21301;-84
2022/03/27 03:13:47;;;;;;;22.17;13.23;;;;;;;6.86;74.20;99217.31;4146797;28;20641;-84
2022/03/27 03:15:52;;;;;;;22.33;14.38;;;;;;;6.87;74.47;99224.19;4157327;28;20612;-83
2022/03/27 03:17:56;;;;;;;23.53;12.87;;;;;;;6.85;74.14;99220.78;4143212;28;20211;-83
2022/03/27 03:19:59;;;;;;;20.67;13.23;;;;;;;6.82;74.86;99215.72;4161180;28;20681;-84
2022/03/27 03:22:03;;;;;;;22.63;12.90;;;;;;;6.82;74.42;99220.06;4178873;28;21194;-83
2022/03/27 03:24:07;;;;;;;23.60;13.37;;;;;;;6.80;74.54;99216.69;4155237;28;20673;-84
2022/03/27 03:26:11;;;;;;;22.38;12.80;;;;;;;6.78;73.97;99226.25;4162746;28;21229;-84
2022/03/27 03:28:14;;;;;;;25.05;13.30;;;;;;;6.75;74.60;99223.75;4160568;28;20303;-83
2022/03/27 03:30:17;;;;;;;26.17;13.90;;;;;;;6.73;74.48;99220.38;4162120;28;20297;-83
2022/03/27 03:32:23;;;;;;;27.08;13.90;;;;;;;6.74;74.62;99227.28;4147750;28;20203;-84
2022/03/27 03:34:27;;;;;;;26.70;13.90;;;;;;;6.73;74.57;99223.81;4161782;28;20211;-84
2022/03/27 03:36:30;;;;;;;28.15;14.40;;;;;;;6.72;74.63;99226.47;4159419;28;21125;-84
2022/03/27 03:38:33;;;;;;;27.10;15.27;;;;;;;6.67;74.40;99225.78;4142462;28;20223;-84
2022/03/27 03:40:37;;;;;;;24.05;14.65;;;;;;;6.62;74.08;99223.34;4145659;28;20205;-84
2022/03/27 03:42:41;;;;;;;24.92;12.88;;;;;;;6.57;74.77;99220.09;4146320;28;20707;-83
2022/03/27 03:44:44;;;;;;;22.27;13.75;;;;;;;6.50;74.66;99227.28;4159536;28;20246;-84
2022/03/27 03:46:48;;;;;;;31.00;14.50;;;;;;;6.45;74.32;99222.25;4162169;28;20212;-84
2022/03/27 03:48:53;;;;;;;25.87;14.53;;;;;;;6.43;74.67;99220.59;4179926;28;20239;-84
2022/03/27 03:50:56;;;;;;;21.10;13.10;;;;;;;6.45;75.12;99223.97;4163056;28;21017;-83
2022/03/27 03:52:59;;;;;;;26.48;13.52;;;;;;;6.46;75.83;99225.69;4160088;28;21302;-83
2022/03/27 03:55:03;;;;;;;25.02;14.10;;;;;;;6.49;75.29;99230.75;4161104;28;20208;-84
2022/03/27 03:57:07;;;;;;;25.63;13.63;;;;;;;6.47;75.33;99228.22;4175483;28;20696;-83
2022/03/27 03:59:10;;;;;;;22.10;13.85;;;;;;;6.47;75.42;99224.78;4161025;28;20566;-84
2022/03/27 04:01:31;;;;;;;27.73;14.75;;;;;;;6.48;75.76;99232.50;4158085;28;20206;-84
2022/03/27 04:03:34;;;;;;;27.10;15.20;;;;;;;6.50;75.37;99227.28;4164200;28;20253;-84
2022/03/27 04:05:39;;;;;;;23.05;13.52;;;;;;;6.50;75.81;99230.72;4163146;28;20639;-83
2022/03/27 04:07:43;;;;;;;24.13;14.05;;;;;;;6.48;75.45;99227.34;4146866;28;20218;-84
2022/03/27 04:09:46;;;;;;;26.73;15.40;;;;;;;6.47;75.50;99217.03;4144899;28;20376;-83
2022/03/27 04:11:49;;;;;;;26.10;15.35;;;;;;;6.46;75.68;99221.34;4141198;28;20194;-83
2022/03/27 04:13:53;;;;;;;28.65;15.50;;;;;;;6.47;75.66;99217.84;4143496;28;20215;-84
2022/03/27 04:15:56;;;;;;;23.67;14.93;;;;;;;6.47;75.66;99223.03;4163353;28;20239;-83
2022/03/27 04:18:00;;;;;;;24.57;15.07;;;;;;;6.47;75.88;99227.38;4160930;28;20652;-84
2022/03/27 04:20:06;;;;;;;26.05;15.75;;;;;;;6.45;76.16;99224.84;4179185;28;21088;-84
2022/03/27 04:22:10;;;;;;;23.58;15.32;;;;;;;6.49;75.74;99225.56;4179976;28;20687;-84
2022/03/27 04:24:14;;;;;;;27.35;14.60;;;;;;;6.45;76.28;99222.25;4160922;28;20227;-84
2022/03/27 04:26:17;;;;;;;27.88;14.43;;;;;;;6.47;75.57;99223.03;4157703;28;20266;-84
2022/03/27 04:28:21;;;;;;;23.70;14.15;;;;;;;6.42;76.23;99224.09;4152100;28;20200;-83
2022/03/27 04:30:24;;;;;;;27.73;15.07;;;;;;;6.41;75.79;99223.25;4163787;28;20211;-83
2022/03/27 04:32:28;;;;;;;23.42;14.30;;;;;;;6.42;75.73;99224.94;4166389;28;20200;-84
2022/03/27 04:34:33;;;;;;;30.05;14.98;;;;;;;6.40;75.69;99226.72;4162780;28;20203;-84
2022/03/27 04:36:37;;;;;;;28.60;15.45;;;;;;;6.37;76.13;99224.22;4146410;28;20302;-84
2022/03/27 04:38:41;;;;;;;24.25;14.02;;;;;;;6.34;75.63;99224.34;4162420;28;20208;-83
2022/03/27 04:40:44;;;;;;;26.25;14.10;;;;;;;6.28;75.52;99228.88;4154208;28;20278;-83
2022/03/27 04:42:48;;;;;;;24.50;15.05;;;;;;;6.25;75.96;99222.03;4142735;28;20233;-84
2022/03/27 04:44:51;;;;;;;24.05;13.55;;;;;;;6.23;75.74;99233.38;4146357;28;20745;-83
2022/03/27 04:46:54;;;;;;;21.65;13.48;;;;;;;6.18;75.19;99233.53;4160500;28;20216;-83
2022/03/27 04:48:58;;;;;;;30.42;14.25;;;;;;;6.04;75.37;99232.28;4146352;28;20627;-84
2022/03/27 04:51:01;;;;;;;23.95;13.65;;;;;;;5.97;75.36;99230.78;4154317;28;20211;-83
2022/03/27 04:53:04;;;;;;;27.55;14.35;;;;;;;5.94;75.67;99240.38;4172834;28;20248;-83
2022/03/27 04:55:09;;;;;;;27.50;14.00;;;;;;;5.93;76.35;99238.69;4145516;28;20295;-83
2022/03/27 04:57:13;;;;;;;32.03;15.38;;;;;;;5.93;76.55;99238.69;4159278;28;20620;-83
2022/03/27 04:59:16;;;;;;;24.35;15.15;;;;;;;5.92;77.14;99234.41;4143210;28;20676;-83
2022/03/27 05:01:19;;;;;;;24.90;14.85;;;;;;;5.90;76.63;99239.63;4160633;28;20197;-83
2022/03/27 05:03:23;;;;;;;24.30;14.45;;;;;;;5.89;76.21;99247.44;4159540;28;20308;-83
2022/03/27 05:05:26;;;;;;;25.27;15.27;;;;;;;5.89;76.30;99245.69;4161181;28;20235;-84
2022/03/27 05:07:30;;;;;;;26.75;14.48;;;;;;;5.88;77.27;99240.56;4155864;28;20576;-83
2022/03/27 05:09:33;;;;;;;22.92;14.25;;;;;;;5.87;76.44;99244.06;4159941;28;20209;-84
2022/03/27 05:11:38;;;;;;;27.40;14.75;;;;;;;5.84;76.66;99249.34;4159241;28;20214;-83
2022/03/27 05:13:41;;;;;;;28.88;13.68;;;;;;;5.80;77.45;99246.00;4162281;28;20244;-83
2022/03/27 05:15:45;;;;;;;26.02;14.65;;;;;;;5.83;77.02;99252.81;4137956;28;20214;-83
2022/03/27 05:17:49;;;;;;;25.98;15.30;;;;;;;5.81;77.37;99237.34;4177577;28;20203;-83
2022/03/27 05:19:53;;;;;;;23.25;13.63;;;;;;;5.82;77.19;99238.19;4146359;28;20215;-83
2022/03/27 05:21:57;;;;;;;23.45;14.27;;;;;;;5.79;77.63;99251.25;4167478;28;20199;-83
2022/03/27 05:24:01;;;;;;;31.30;15.77;;;;;;;5.80;78.03;99247.72;4162962;28;20198;-83
2022/03/27 05:26:08;;;;;;;26.08;14.73;;;;;;;5.82;77.75;99258.91;4142643;28;20294;-83
2022/03/27 05:28:15;;;;;;;26.20;16.25;;;;;;;5.80;77.86;99235.66;4156259;28;20669;-84
2022/03/27 05:30:19;;;;;;;24.80;14.07;;;;;;;5.86;78.39;99244.97;4153634;28;20237;-83
2022/03/27 05:32:22;;;;;;;22.50;14.48;;;;;;;5.92;77.30;99247.34;4176125;28;20213;-83
2022/03/27 05:34:26;;;;;;;26.08;15.15;;;;;;;6.00;77.54;99246.22;4162008;28;20269;-84
2022/03/27 05:36:29;;;;;;;27.77;15.48;;;;;;;6.09;77.17;99249.38;4157440;28;20253;-84
2022/03/27 05:38:32;;;;;;;27.33;16.00;;;;;;;6.21;77.69;99251.56;4145999;28;20212;-83
2022/03/27 05:40:36;;;;;;;27.17;15.10;;;;;;;6.31;77.11;99239.97;4156741;28;20212;-83
2022/03/27 05:42:39;;;;;;;28.05;16.35;;;;;;;6.42;76.97;99245.66;4158064;28;20223;-83
2022/03/27 05:44:44;;;;;;;32.85;15.50;;;;;;;6.56;76.69;99248.63;4157153;28;20777;-83
2022/03/27 05:46:47;;;;;;;22.90;13.65;;;;;;;6.68;76.97;99250.81;4163937;28;20210;-84
2022/03/27 05:48:50;;;;;;;24.92;15.88;;;;;;;6.83;76.17;99250.28;4163294;28;20206;-83
2022/03/27 05:50:54;;;;;;;22.70;14.88;;;;;;;6.95;76.15;99257.63;4141890;28;20208;-83
2022/03/27 05:52:57;;;;;;;27.65;16.20;;;;;;;7.10;75.50;99252.75;4153783;28;20246;-84
2022/03/27 05:55:01;;;;;;;25.83;15.20;;;;;;;7.19;75.26;99258.44;4172915;28;20199;-83
2022/03/27 05:57:05;;;;;;;24.17;14.55;;;;;;;7.30;75.05;99256.28;4158110;28;20258;-84
2022/03/27 05:59:08;;;;;;;26.70;14.73;;;;;;;7.43;75.44;99260.13;4159541;28;20240;-84
2022/03/27 06:01:14;;;;;;;28.08;15.63;;;;;;;7.56;74.12;99261.34;4161911;28;20627;-84
2022/03/27 06:03:22;;;;;;;27.15;16.70;;;;;;;7.73;73.59;99261.56;4159668;28;20277;-84
2022/03/27 06:05:25;;;;;;;26.73;15.68;;;;;;;7.90;73.98;99256.56;4157314;28;20598;-84
2022/03/27 06:07:29;;;;;;;26.27;14.85;;;;;;;8.04;73.35;99258.56;4151608;28;20215;-84
2022/03/27 06:09:33;;;;;;;23.10;14.27;;;;;;;8.20;73.22;99257.06;4145721;28;20203;-83
2022/03/27 06:11:37;;;;;;;29.15;15.55;;;;;;;8.38;71.52;99264.13;4178221;28;20624;-84
2022/03/27 06:13:40;;;;;;;22.40;15.00;;;;;;;8.54;71.18;99250.44;4180522;28;20204;-84
2022/03/27 06:15:43;;;;;;;25.27;14.73;;;;;;;8.72;71.46;99264.38;4162309;28;20809;-83
2022/03/27 06:17:49;;;;;;;27.93;16.43;;;;;;;8.86;69.85;99269.88;4159009;28;20687;-83
2022/03/27 06:19:52;;;;;;;21.97;13.80;;;;;;;8.99;72.28;99264.91;4139998;28;20738;-84
2022/03/27 06:21:56;;;;;;;20.63;14.60;;;;;;;9.14;69.24;99274.66;4156945;28;20649;-84
2022/03/27 06:23:59;;;;;;;24.00;14.60;;;;;;;9.25;69.36;99277.63;4154487;28;20715;-84
2022/03/27 06:26:03;;;;;;;24.47;15.13;;;;;;;9.44;69.11;99275.88;4158570;28;20647;-84
2022/03/27 06:28:07;;;;;;;26.97;15.87;;;;;;;9.64;68.63;99284.50;4175378;28;21189;-84
2022/03/27 06:30:13;;;;;;;20.30;14.47;;;;;;;9.84;70.49;99283.59;4162052;28;20668;-84
2022/03/27 06:32:16;;;;;;;31.37;15.70;;;;;;;10.00;70.27;99281.06;4142207;28;20697;-84
2022/03/27 06:34:21;;;;;;;27.57;16.90;;;;;;;10.17;68.53;99290.72;4144896;28;21184;-83
2022/03/27 06:36:24;;;;;;;25.50;16.47;;;;;;;10.30;68.83;99290.06;4145469;28;20672;-85
2022/03/27 06:38:28;;;;;;;24.90;16.53;;;;;;;10.41;67.62;99290.38;4144234;28;20670;-83
2022/03/27 06:40:32;;;;;;;28.07;17.03;;;;;;;10.53;67.82;99295.00;4140431;28;20730;-83
2022/03/27 06:42:36;;;;;;;26.00;15.30;;;;;;;10.62;67.80;99290.16;4143888;28;20642;-84
2022/03/27 06:44:40;;;;;;;27.27;17.00;;;;;;;10.77;68.67;99291.19;4141753;28;20633;-84
2022/03/27 06:46:44;;;;;;;27.33;16.90;;;;;;;10.90;68.13;99293.94;4179420;28;20647;-84
2022/03/27 06:48:49;;;;;;;29.73;16.73;;;;;;;11.03;66.55;99299.38;4160253;28;20691;-84
2022/03/27 06:50:54;;;;;;;26.10;15.67;;;;;;;11.19;66.67;99300.28;4145175;28;20629;-84
2022/03/27 06:52:57;;;;;;;22.23;16.07;;;;;;;11.31;66.63;99300.50;4146519;28;20748;-84
2022/03/27 06:55:00;;;;;;;25.00;16.20;;;;;;;11.48;66.58;99306.53;4150545;28;20620;-84
2022/03/27 06:57:04;;;;;;;30.80;17.57;;;;;;;11.69;67.21;99296.72;4164535;28;20715;-84
2022/03/27 06:59:09;;;;;;;27.30;17.00;;;;;;;11.86;66.74;99305.34;4146983;28;20749;-84
2022/03/27 07:03:33;;;;;;;29.60;17.47;;;;;;;12.27;63.96;99297.75;4146046;28;20658;-84
2022/03/27 07:05:40;;;;;;;26.90;16.97;;;;;;;12.41;66.44;99287.34;4161537;28;21087;-84
2022/03/27 07:07:45;;;;;;;25.50;16.60;;;;;;;12.60;65.49;99300.25;4159721;28;20644;-84
2022/03/27 07:09:48;;;;;;;26.47;17.33;;;;;;;12.77;63.71;99300.97;4160930;28;20621;-84
2022/03/27 07:11:52;;;;;;;27.83;18.00;;;;;;;12.83;62.94;99295.41;4162823;28;21196;-84
2022/03/27 07:13:55;;;;;;;27.63;17.80;;;;;;;12.89;62.87;99298.50;4145159;28;21014;-84
2022/03/27 07:15:58;;;;;;;27.80;17.90;;;;;;;13.02;63.25;99291.63;4164347;28;20626;-84
2022/03/27 07:18:02;;;;;;;28.60;18.20;;;;;;;13.19;63.69;99291.47;4159575;28;20641;-84
2022/03/27 07:20:07;;;;;;;28.10;17.53;;;;;;;13.37;62.82;99298.25;4160284;28;20663;-84
2022/03/27 07:22:10;;;;;;;29.40;16.73;;;;;;;13.60;62.93;99300.31;4142871;28;20645;-84
2022/03/27 07:24:15;;;;;;;23.70;17.27;;;;;;;13.79;63.10;99305.16;4156733;28;20643;-84
2022/03/27 07:26:18;;;;;;;25.50;17.73;;;;;;;14.01;61.53;99305.53;4157617;28;20745;-84
2022/03/27 07:28:22;;;;;;;30.07;17.77;;;;;;;14.17;62.29;99298.41;4163605;28;20632;-84
2022/03/27 07:30:25;;;;;;;29.00;18.57;;;;;;;14.34;61.95;99304.28;4146095;28;20678;-83
2022/03/27 07:32:28;;;;;;;28.07;18.20;;;;;;;14.51;62.36;99297.91;4163563;28;20620;-84
2022/03/27 07:34:32;;;;;;;26.17;18.07;;;;;;;14.63;60.95;99308.47;4163684;28;20621;-84
2022/03/27 07:36:35;;;;;;;25.43;17.03;;;;;;;14.86;61.28;99313.91;4146290;28;20740;-84
2022/03/27 07:38:38;;;;;;;22.00;16.17;;;;;;;15.04;61.46;99317.94;4179306;28;20659;-84
2022/03/27 07:40:43;;;;;;;27.90;17.80;;;;;;;15.23;61.20;99313.16;4159837;28;20670;-84
2022/03/27 07:42:49;;;;;;;23.37;16.80;;;;;;;15.37;60.50;99315.72;4161478;28;20724;-84
2022/03/27 07:44:53;;;;;;;27.20;17.10;;;;;;;15.51;60.80;99320.88;4162752;28;20633;-84
2022/03/27 07:46:59;;;;;;;29.17;17.87;;;;;;;15.68;59.96;99316.97;4144493;28;21326;-84
2022/03/27 07:49:03;;;;;;;26.73;16.60;;;;;;;15.90;60.12;99318.94;4159928;28;20631;-85
2022/03/27 07:51:08;;;;;;;26.23;16.80;;;;;;;16.06;61.73;99312.50;4146743;28;20773;-85
2022/03/27 07:53:11;;;;;;;24.53;17.20;;;;;;;16.18;57.91;99317.72;4162438;28;20633;-84
2022/03/27 07:55:16;;;;;;;25.40;16.80;;;;;;;16.23;60.25;99309.53;4160965;28;20618;-84
2022/03/27 07:57:21;;;;;;;28.30;16.90;;;;;;;16.33;59.14;99315.84;4154895;28;21247;-84
2022/03/27 07:59:25;;;;;;;25.90;16.60;;;;;;;16.51;60.93;99310.09;4169346;28;21236;-84
2022/03/27 08:01:28;;;;;;;25.43;16.63;;;;;;;16.67;58.98;99315.91;4146226;28;20693;-85
2022/03/27 08:03:33;;;;;;;24.10;16.20;;;;;;;16.78;56.92;99314.16;4146276;28;20752;-84
2022/03/27 08:05:37;;;;;;;22.13;15.67;;;;;;;16.75;56.07;99314.41;4175666;28;20747;-84
2022/03/27 08:07:41;;;;;;;20.90;14.10;;;;;;;16.78;56.10;99310.66;4144776;28;20658;-85
2022/03/27 08:09:44;;;;;;;19.30;13.60;;;;;;;16.80;55.47;99301.72;4166915;28;20630;-85
2022/03/27 08:11:47;;;;;;;19.60;12.60;;;;;;;16.88;56.43;99303.78;4144876;28;20637;-84
2022/03/27 08:13:52;;;;;;;23.00;14.13;;;;;;;17.05;54.96;99305.06;4177359;28;20625;-84
2022/03/27 08:15:55;;;;;;;19.63;13.37;;;;;;;17.19;53.97;99311.94;4158909;28;20716;-84
2022/03/27 08:17:59;;;;;;;17.37;12.60;;;;;;;17.35;54.41;99304.56;4138849;28;20641;-84
2022/03/27 08:20:07;;;;;;;20.80;12.37;;;;;;;17.48;53.95;99314.91;4157670;28;20628;-84
2022/03/27 08:22:10;;;;;;;18.97;12.90;;;;;;;17.56;55.32;99309.88;4142283;28;20661;-84
2022/03/27 08:24:14;;;;;;;21.47;14.43;;;;;;;17.64;54.54;99322.50;4160683;28;20626;-84
2022/03/27 08:28:39;;;;;;;22.00;13.83;;;;;;;17.79;53.91;99313.38;4165710;28;21261;-85
2022/03/27 08:30:43;;;;;;;20.90;13.47;;;;;;;17.87;53.40;99317.09;4153477;28;20713;-84
2022/03/27 08:32:47;;;;;;;20.07;13.90;;;;;;;17.84;52.94;99312.06;4159106;28;20629;-84
2022/03/27 08:34:50;;;;;;;19.80;13.40;;;;;;;17.82;54.38;99313.16;4146617;28;21117;-84
2022/03/27 08:36:54;;;;;;;18.83;12.73;;;;;;;17.90;52.74;99316.03;4162607;28;20641;-85
2022/03/27 08:38:57;;;;;;;18.63;14.10;;;;;;;17.90;53.30;99316.84;4143012;28;20708;-84
2022/03/27 08:41:02;;;;;;;19.60;13.47;;;;;;;17.84;53.69;99317.34;4161508;28;20637;-85
2022/03/27 08:43:06;;;;;;;19.63;13.23;;;;;;;17.98;53.22;99303.88;4143579;28;20671;-84
2022/03/27 08:45:10;;;;;;;26.23;14.47;;;;;;;18.07;53.58;99316.38;4163399;28;20625;-84
2022/03/27 08:47:19;;;;;;;19.17;13.83;;;;;;;18.10;53.38;99310.84;4141779;28;21310;-85
2022/03/27 08:49:30;;;;;;;20.07;13.80;;;;;;;18.27;53.06;99308.59;4156115;28;21019;-84
2022/03/27 08:51:35;;;;;;;22.53;17.03;;;;;;;18.37;51.79;99312.16;4174648;28;21201;-84
2022/03/27 08:53:44;;;;;;;23.40;14.97;;;;;;;18.46;52.61;99306.13;4142218;28;20642;-84
2022/03/27 08:55:53;;;;;;;21.67;14.97;;;;;;;18.40;52.43;99303.16;4169057;28;20628;-85
2022/03/27 08:57:58;;;;;;;22.60;14.47;;;;;;;18.52;53.04;99303.00;4161206;28;20851;-84
2022/03/27 09:00:02;;;;;;;20.43;14.43;;;;;;;18.67;52.36;99307.91;4151296;28;20625;-84
2022/03/27 09:02:05;;;;;;;20.13;13.67;;;;;;;18.75;51.56;99312.53;4142672;28;20630;-84
2022/03/27 09:04:11;;;;;;;19.93;15.00;;;;;;;18.76;51.74;99307.13;4154159;28;20654;-84
2022/03/27 09:06:14;;;;;;;20.37;14.60;;;;;;;18.78;51.27;99299.94;4161900;28;20638;-84
2022/03/27 09:08:18;;;;;;;23.13;13.10;;;;;;;18.78;51.79;99307.84;4143925;28;20657;-84
2022/03/27 09:10:23;;;;;;;21.40;14.23;;;;;;;18.80;50.98;99311.22;4146901;28;20737;-85
2022/03/27 09:12:26;;;;;;;20.50;14.00;;;;;;;18.84;51.49;99306.50;4153544;28;21181;-84
2022/03/27 09:14:32;;;;;;;28.10;13.77;;;;;;;18.95;50.28;99315.25;4157835;28;20696;-84
2022/03/27 09:17:00;;;;;;;17.17;12.90;;;;;;;18.92;52.11;99312.84;4158089;28;21215;-84
2022/03/27 09:19:03;;;;;;;22.07;13.27;;;;;;;18.95;52.10;99312.59;4178446;28;20693;-84
2022/03/27 09:21:08;;;;;;;23.10;14.57;;;;;;;19.05;51.68;99311.75;4134414;28;21019;-84
2022/03/27 09:23:19;;;;;;;21.40;13.40;;;;;;;19.03;50.76;99312.81;4160819;28;20664;-84
2022/03/27 09:25:22;;;;;;;22.60;14.67;;;;;;;19.03;50.86;99311.03;4158759;28;21205;-85
2022/03/27 09:27:30;;;;;;;18.80;13.47;;;;;;;19.22;50.93;99311.19;4161483;28;20720;-84
2022/03/27 09:29:59;;;;;;;25.00;14.20;;;;;;;19.40;51.28;99321.03;4138919;28;20669;-84
2022/03/27 09:32:03;;;;;;;23.43;14.33;;;;;;;19.38;49.85;99315.06;4145441;28;21270;-84
2022/03/27 09:34:07;;;;;;;23.30;14.17;;;;;;;19.27;49.35;99314.25;4159196;28;20630;-84
2022/03/27 09:36:14;;;;;;;20.07;13.17;;;;;;;19.28;51.65;99310.66;4142441;28;20655;-84
2022/03/27 09:38:20;;;;;;;21.13;13.10;;;;;;;19.40;50.99;99309.63;4142097;28;20856;-84
2022/03/27 09:40:24;;;;;;;19.40;13.63;;;;;;;19.41;51.33;99301.56;4142132;28;21216;-84
2022/03/27 09:42:27;;;;;;;26.73;13.80;;;;;;;19.55;49.68;99308.34;4161769;28;20873;-84
2022/03/27 09:44:33;;;;;;;20.90;13.40;;;;;;;19.65;49.25;99303.91;4137174;28;20975;-84
2022/03/27 09:46:51;;;;;;;21.60;13.53;;;;;;;19.69;48.96;99311.47;4151348;28;20710;-84
2022/03/27 09:48:57;;;;;;;22.63;12.93;;;;;;;19.83;51.08;99299.69;4158286;28;20671;-85